Time;durP1;ratioP1;P1;durP2;ratioP2;P2;SDS_P1;SDS_P2;PMS_P1;PMS_P2;Temp;Humidity;BMP_temperature;BMP_pressure;BME280_temperature;BME280_humidity;BME280_pressure;Samples;Min_cycle;Max_cycle;Signal;HPM_P1;HPM_P2
2023/07/23 04:03:01;;;;;;;0.60;0.10;;;19.60;1.00;;;;;;4955257;29;20504;-70
2023/07/23 04:05:29;;;;;;;0.60;0.10;;;19.60;1.00;;;;;;4958956;29;20485;-70
2023/07/23 04:07:57;;;;;;;0.60;0.10;;;19.60;1.00;;;;;;4959459;29;20474;-71
2023/07/23 04:10:25;;;;;;;0.60;0.10;;;19.70;1.00;;;;;;4960726;28;20569;-72
2023/07/23 04:12:52;;;;;;;0.60;0.10;;;19.70;1.00;;;;;;4996134;28;20492;-70
2023/07/23 04:15:21;;;;;;;3.90;0.73;;;;;;;;;;5048737;23;20453;-71
2023/07/23 04:17:48;;;;;;;0.60;0.20;;;19.80;1.00;;;;;;5013338;28;20818;-71
2023/07/23 04:20:18;;;;;;;0.60;0.20;;;19.80;1.00;;;;;;5014043;28;20799;-70
2023/07/23 04:22:46;;;;;;;0.60;0.20;;;19.80;1.00;;;;;;5013939;28;20440;-71
2023/07/23 04:25:13;;;;;;;0.60;0.20;;;19.80;1.00;;;;;;5014188;28;20522;-70
2023/07/23 04:27:41;;;;;;;0.60;0.10;;;19.80;1.00;;;;;;5000740;28;20562;-70
2023/07/23 04:30:10;;;;;;;0.60;0.10;;;19.80;1.00;;;;;;5002668;28;20518;-70
2023/07/23 04:32:38;;;;;;;0.60;0.10;;;;;;;;;;5013891;28;20446;-70
2023/07/23 04:35:07;;;;;;;0.60;0.20;;;20.00;1.00;;;;;;5013979;28;20467;-70
2023/07/23 04:37:36;;;;;;;0.60;0.20;;;20.00;1.00;;;;;;5004729;28;20464;-70
2023/07/23 04:40:04;;;;;;;0.60;0.30;;;20.00;1.00;;;;;;5013638;28;20436;-70
2023/07/23 04:42:32;;;;;;;0.60;0.20;;;20.00;1.00;;;;;;5013160;28;20818;-70
2023/07/23 04:45:00;;;;;;;0.60;0.20;;;20.10;1.00;;;;;;5013624;28;20474;-70
2023/07/23 04:47:29;;;;;;;1.37;0.70;;;19.80;1.00;;;;;;5002574;28;21133;-71
2023/07/23 04:49:57;;;;;;;0.60;0.20;;;19.80;1.00;;;;;;5007234;28;20487;-69
2023/07/23 04:52:25;;;;;;;0.60;0.20;;;19.80;1.00;;;;;;4994016;28;20453;-70
2023/07/23 04:54:54;;;;;;;0.60;0.20;;;19.80;1.00;;;;;;4993542;28;20547;-70
2023/07/23 04:57:23;;;;;;;0.60;0.20;;;;;;;;;;5002921;28;20543;-70
2023/07/23 04:59:50;;;;;;;0.70;0.30;;;19.80;1.00;;;;;;5012892;28;20452;-70
2023/07/23 05:02:19;;;;;;;0.60;0.20;;;;;;;;;;4994940;28;20462;-70
2023/07/23 05:04:46;;;;;;;0.90;0.33;;;19.40;1.00;;;;;;4993072;28;20482;-71
2023/07/23 05:07:14;;;;;;;1.10;0.93;;;19.30;1.00;;;;;;4993396;28;20459;-70
2023/07/23 05:09:42;;;;;;;1.17;0.93;;;19.20;1.00;;;;;;4993033;28;20854;-70
2023/07/23 05:12:12;;;;;;;0.93;0.70;;;19.10;1.00;;;;;;5008045;28;20530;-70
2023/07/23 05:14:39;;;;;;;0.70;0.63;;;19.10;1.00;;;;;;4993421;28;20445;-70
2023/07/23 05:17:07;;;;;;;0.60;0.20;;;19.10;1.00;;;;;;4993032;28;20994;-71
2023/07/23 05:19:35;;;;;;;1.13;1.03;;;19.20;1.00;;;;;;4993472;28;20503;-70
2023/07/23 05:22:03;;;;;;;0.87;0.53;;;19.30;1.00;;;;;;4993210;28;20539;-70
2023/07/23 05:24:31;;;;;;;0.80;0.50;;;19.30;1.00;;;;;;4993064;28;20504;-70
2023/07/23 05:26:59;;;;;;;0.60;0.20;;;19.30;1.00;;;;;;5003489;28;20446;-71
2023/07/23 05:29:28;;;;;;;4.40;2.10;;;19.10;1.00;;;;;;5032241;28;20566;-71
2023/07/23 05:31:56;;;;;;;1.10;0.30;;;18.90;1.00;;;;;;5037368;28;20455;-70
2023/07/23 05:34:24;;;;;;;0.80;0.30;;;;;;;;;;5034736;28;20779;-70
2023/07/23 05:36:52;;;;;;;0.70;0.40;;;19.10;1.00;;;;;;5027584;28;20468;-70
2023/07/23 05:39:20;;;;;;;0.90;0.70;;;18.90;1.00;;;;;;5026893;28;20531;-71
2023/07/23 05:41:48;;;;;;;1.73;1.33;;;18.90;1.00;;;;;;5023838;28;20436;-70
2023/07/23 05:44:17;;;;;;;0.60;0.10;;;18.90;1.00;;;;;;5027253;28;20528;-70
2023/07/23 05:46:46;;;;;;;0.60;0.30;;;18.90;1.00;;;;;;5023452;28;20501;-70
2023/07/23 05:49:14;;;;;;;1.63;0.63;;;18.90;1.00;;;;;;5014760;28;20501;-70
2023/07/23 05:51:42;;;;;;;0.60;0.10;;;18.90;1.00;;;;;;5013708;28;20470;-69
2023/07/23 05:54:10;;;;;;;0.73;0.60;;;18.90;1.00;;;;;;5012741;28;20466;-70
2023/07/23 05:56:38;;;;;;;0.60;0.10;;;19.10;1.00;;;;;;4996464;28;20495;-70
2023/07/23 05:59:06;;;;;;;1.00;0.33;;;19.10;1.00;;;;;;5014179;28;20446;-70
2023/07/23 06:01:34;;;;;;;0.60;0.13;;;18.90;1.00;;;;;;5028768;28;20449;-70
2023/07/23 06:04:03;;;;;;;0.60;0.27;;;18.90;1.00;;;;;;5012323;28;20458;-70
2023/07/23 06:06:31;;;;;;;0.60;0.10;;;19.00;1.00;;;;;;4994738;28;20540;-70
2023/07/23 06:08:59;;;;;;;0.60;0.10;;;19.10;1.00;;;;;;4992536;28;20452;-70
2023/07/23 06:11:27;;;;;;;0.67;0.30;;;19.10;1.00;;;;;;5004338;28;20895;-71
2023/07/23 06:13:55;;;;;;;0.80;0.30;;;19.10;1.00;;;;;;5003673;28;20497;-70
2023/07/23 06:16:23;;;;;;;0.93;0.43;;;19.20;1.00;;;;;;5015763;28;20557;-70
2023/07/23 06:18:51;;;;;;;2.10;1.43;;;;;;;;;;5010211;28;20518;-71
2023/07/23 06:21:23;;;;;;;2.80;0.80;;;19.10;1.00;;;;;;5023027;28;20489;-71
2023/07/23 06:23:53;;;;;;;1.00;0.47;;;19.10;1.00;;;;;;5015564;28;20458;-71
2023/07/23 06:26:22;;;;;;;1.00;0.37;;;;;;;;;;5023329;28;20465;-71
2023/07/23 06:28:50;;;;;;;1.00;0.80;;;;;;;;;;5022195;28;20928;-70
2023/07/23 06:31:18;;;;;;;0.60;0.20;;;;;;;;;;5019813;28;20479;-71
2023/07/23 06:33:47;;;;;;;0.70;0.50;;;;;;;;;;5015052;28;20452;-70
2023/07/23 06:36:15;;;;;;;0.97;0.50;;;19.40;1.00;;;;;;5016657;28;20994;-69
2023/07/23 06:38:45;;;;;;;2.70;2.10;;;19.50;1.00;;;;;;5019641;28;20439;-69
2023/07/23 06:41:12;;;;;;;1.40;0.97;;;19.60;1.00;;;;;;5025764;28;20523;-70
2023/07/23 06:43:41;;;;;;;0.60;0.30;;;;;;;;;;5026637;28;20547;-71
2023/07/23 06:46:14;;;;;;;0.70;0.30;;;19.80;1.00;;;;;;5009783;28;20503;-70
2023/07/23 06:48:41;;;;;;;1.10;0.80;;;19.90;1.00;;;;;;5011604;28;20440;-71
2023/07/23 06:51:09;;;;;;;1.23;0.50;;;20.00;1.00;;;;;;5012403;28;20486;-70
2023/07/23 06:53:38;;;;;;;1.17;0.50;;;;;;;;;;5026702;28;21186;-71
2023/07/23 06:56:08;;;;;;;2.00;1.43;;;20.00;1.00;;;;;;5009769;28;20970;-70
2023/07/23 06:58:38;;;;;;;0.60;0.10;;;20.10;1.00;;;;;;5010990;28;20475;-70
2023/07/23 07:01:08;;;;;;;1.00;0.70;;;20.10;1.00;;;;;;5010484;28;20885;-70
2023/07/23 07:03:36;;;;;;;1.43;0.47;;;20.20;1.00;;;;;;5014344;28;20486;-70
2023/07/23 07:06:04;;;;;;;2.03;1.00;;;20.40;1.00;;;;;;5014989;28;20984;-70
2023/07/23 07:08:32;;;;;;;1.57;1.03;;;20.50;1.00;;;;;;5009751;28;20440;-70
2023/07/23 07:11:02;;;;;;;1.80;0.80;;;20.50;1.00;;;;;;5009949;28;20541;-71
2023/07/23 07:13:32;;;;;;;0.60;0.20;;;20.50;1.00;;;;;;5008546;28;20959;-71
2023/07/23 07:16:00;;;;;;;0.60;0.20;;;20.70;1.00;;;;;;5013884;28;20554;-71
2023/07/23 07:18:28;;;;;;;1.20;0.70;;;20.90;1.00;;;;;;5020306;28;20436;-71
2023/07/23 07:20:58;;;;;;;0.80;0.20;;;21.20;1.00;;;;;;5016788;28;20515;-71
2023/07/23 07:23:26;;;;;;;0.60;0.20;;;21.40;1.00;;;;;;5004874;28;20459;-71
2023/07/23 07:25:56;;;;;;;0.60;0.30;;;;;;;;;;5010977;28;20463;-69
2023/07/23 07:28:25;;;;;;;0.60;0.30;;;21.70;1.00;;;;;;5010696;28;20945;-69
2023/07/23 07:30:59;;;;;;;0.70;0.33;;;21.80;1.00;;;;;;5010812;28;20490;-68
2023/07/23 07:33:26;;;;;;;1.10;0.70;;;21.70;1.00;;;;;;5015982;28;20448;-68
2023/07/23 07:35:55;;;;;;;1.07;0.50;;;21.70;1.00;;;;;;5024018;28;20557;-68
2023/07/23 07:38:24;;;;;;;1.87;0.97;;;21.80;1.00;;;;;;5021563;28;20475;-67
2023/07/23 07:40:52;;;;;;;2.00;1.33;;;21.90;1.00;;;;;;5014020;28;20483;-68
2023/07/23 07:43:20;;;;;;;2.20;1.20;;;21.90;1.00;;;;;;5010051;28;20440;-67
2023/07/23 07:45:48;;;;;;;1.00;0.67;;;22.00;1.00;;;;;;5006060;28;20560;-66
2023/07/23 07:48:20;;;;;;;0.70;0.20;;;22.10;1.00;;;;;;5022102;28;20448;-67
2023/07/23 07:50:49;;;;;;;0.70;0.20;;;22.10;1.00;;;;;;5024874;28;20479;-66
2023/07/23 07:53:17;;;;;;;1.37;0.40;;;;;;;;;;5024890;28;20469;-65
2023/07/23 07:55:45;;;;;;;1.43;0.73;;;21.80;1.00;;;;;;5021925;28;20918;-67
2023/07/23 07:58:14;;;;;;;1.43;1.20;;;;;;;;;;5022159;28;20972;-67
2023/07/23 08:00:42;;;;;;;1.50;0.87;;;21.60;1.00;;;;;;5022125;28;20523;-69
2023/07/23 08:03:10;;;;;;;1.10;0.67;;;21.60;1.00;;;;;;5023138;28;20545;-69
2023/07/23 08:05:40;;;;;;;1.60;1.20;;;19.60;1.00;;;;;;5024578;28;20467;-68
2023/07/23 08:08:10;;;;;;;1.23;0.60;;;21.50;1.00;;;;;;5023979;28;20779;-69
2023/07/23 08:10:41;;;;;;;1.23;0.90;;;21.40;1.00;;;;;;5027234;28;21021;-68
2023/07/23 08:13:11;;;;;;;1.83;0.83;;;21.40;1.00;;;;;;5026270;28;20447;-68
2023/07/23 08:15:39;;;;;;;0.90;0.43;;;;;;;;;;5016852;28;20507;-69
2023/07/23 08:18:07;;;;;;;1.10;0.53;;;21.60;1.00;;;;;;5025328;28;20458;-68
2023/07/23 08:20:36;;;;;;;0.60;0.10;;;21.70;1.00;;;;;;5012347;28;20438;-69
2023/07/23 08:23:06;;;;;;;3.33;1.17;;;21.70;1.00;;;;;;5017567;28;20462;-70
2023/07/23 08:25:35;;;;;;;1.13;0.43;;;21.70;1.00;;;;;;5026873;28;20470;-70
2023/07/23 08:28:03;;;;;;;1.20;0.73;;;21.70;1.00;;;;;;5024312;28;20468;-69
2023/07/23 08:30:32;;;;;;;0.80;0.53;;;21.60;1.00;;;;;;5016487;28;20467;-70
2023/07/23 08:33:01;;;;;;;0.80;0.70;;;21.70;1.00;;;;;;5024281;28;20539;-69
2023/07/23 08:35:30;;;;;;;0.60;0.20;;;21.70;1.00;;;;;;5026873;28;20473;-70
2023/07/23 08:37:59;;;;;;;2.00;1.00;;;21.80;1.00;;;;;;5024383;28;20538;-70
2023/07/23 08:40:30;;;;;;;2.40;0.87;;;21.80;1.00;;;;;;5030420;28;20468;-69
2023/07/23 08:43:29;;;;;;;1.13;0.63;;;21.80;1.00;;;;;;5021670;28;20433;-69
2023/07/23 08:46:20;;;;;;;0.80;0.60;;;21.60;1.00;;;;;;5021617;28;20474;-70
2023/07/23 08:49:04;;;;;;;0.70;0.53;;;21.60;1.00;;;;;;5023945;28;20433;-71
2023/07/23 08:51:34;;;;;;;1.47;0.73;;;21.70;1.00;;;;;;5023706;28;20489;-70
2023/07/23 08:54:03;;;;;;;0.60;0.13;;;21.80;1.00;;;;;;5020231;28;20454;-69
2023/07/23 08:56:33;;;;;;;0.90;0.73;;;21.90;1.00;;;;;;5021371;28;20981;-70
2023/07/23 08:59:04;;;;;;;0.60;0.20;;;21.90;1.00;;;;;;5023129;28;21007;-70
2023/07/23 09:01:34;;;;;;;0.70;0.27;;;22.00;1.00;;;;;;5020419;28;20463;-70
2023/07/23 09:04:04;;;;;;;1.90;0.50;;;22.00;1.00;;;;;;5022150;28;20489;-70
2023/07/23 09:06:32;;;;;;;1.00;0.70;;;22.00;1.00;;;;;;5021373;28;20933;-70
2023/07/23 09:09:07;;;;;;;1.37;0.60;;;21.90;1.00;;;;;;5022608;28;20542;-70
2023/07/23 09:11:37;;;;;;;0.90;0.40;;;22.00;1.00;;;;;;5018276;28;20486;-69
2023/07/23 09:14:09;;;;;;;0.70;0.27;;;21.90;1.00;;;;;;5021244;28;20449;-69
2023/07/23 09:16:38;;;;;;;0.70;0.30;;;21.90;1.00;;;;;;4995160;28;20567;-71
2023/07/23 09:19:08;;;;;;;0.60;0.20;;;22.00;1.00;;;;;;4993427;28;20962;-70
2023/07/23 09:21:37;;;;;;;0.60;0.20;;;22.20;1.00;;;;;;4993015;28;20500;-69
2023/07/23 09:24:07;;;;;;;0.67;0.20;;;22.20;1.00;;;;;;4993508;28;20453;-69
2023/07/23 09:26:38;;;;;;;0.80;0.20;;;22.30;1.00;;;;;;5007986;28;20469;-70
2023/07/23 09:29:09;;;;;;;0.70;0.20;;;22.40;1.00;;;;;;5012131;28;20468;-70
2023/07/23 09:31:38;;;;;;;0.70;0.20;;;22.50;1.00;;;;;;5005898;28;20485;-70
2023/07/23 09:34:06;;;;;;;1.27;1.03;;;;;;;;;;5010423;28;20516;-75
2023/07/23 09:36:34;;;;;;;0.67;0.30;;;;;;;;;;5020050;28;20465;-71
2023/07/23 09:39:04;;;;;;;0.93;0.57;;;22.60;1.00;;;;;;5022802;28;21021;-71
2023/07/23 09:41:34;;;;;;;0.70;0.30;;;22.60;1.00;;;;;;5022572;28;20563;-73
2023/07/23 09:44:06;;;;;;;3.50;0.83;;;22.70;1.00;;;;;;5019876;28;20485;-71
2023/07/23 09:46:36;;;;;;;0.70;0.20;;;22.40;1.00;;;;;;5011535;28;20465;-70
2023/07/23 09:49:04;;;;;;;1.40;0.80;;;22.40;1.00;;;;;;5012009;28;20450;-70
2023/07/23 09:51:32;;;;;;;0.70;0.30;;;22.40;1.00;;;;;;5012515;28;20479;-71
2023/07/23 09:54:01;;;;;;;0.70;0.20;;;22.30;1.00;;;;;;4996301;28;20453;-68
2023/07/23 09:56:29;;;;;;;0.70;0.20;;;22.20;1.00;;;;;;5003167;28;20467;-70
2023/07/23 09:58:59;;;;;;;0.70;0.33;;;22.20;1.00;;;;;;5031826;28;20542;-69
2023/07/23 10:01:29;;;;;;;0.70;0.20;;;22.30;1.00;;;;;;5031581;28;20445;-68
2023/07/23 10:03:59;;;;;;;1.00;0.47;;;22.30;1.00;;;;;;5006537;28;20451;-69
2023/07/23 10:06:27;;;;;;;0.70;0.50;;;;;;;;;;5011688;28;20465;-69
2023/07/23 10:08:56;;;;;;;0.70;0.20;;;22.40;1.00;;;;;;5011934;28;20445;-68
2023/07/23 10:11:24;;;;;;;0.60;0.17;;;;;;;;;;5011510;28;20441;-68
2023/07/23 10:13:53;;;;;;;1.47;0.70;;;22.10;1.00;;;;;;4997079;28;20512;-68
2023/07/23 10:16:27;;;;;;;0.60;0.20;;;22.00;1.00;;;;;;5029320;23;20508;-72
2023/07/23 10:18:59;;;;;;;0.67;0.20;;;22.00;1.00;;;;;;5016463;28;20494;-72
2023/07/23 10:21:31;;;;;;;0.60;0.10;;;22.00;1.00;;;;;;5016604;28;20552;-71
2023/07/23 10:24:02;;;;;;;1.07;0.37;;;22.10;1.00;;;;;;5016565;28;20949;-71
2023/07/23 10:26:31;;;;;;;0.60;0.10;;;22.10;1.00;;;;;;5015674;28;20472;-71
2023/07/23 10:29:09;;;;;;;0.70;0.57;;;22.10;1.00;;;;;;5016248;28;20456;-70
2023/07/23 10:31:38;;;;;;;1.43;1.07;;;22.10;1.00;;;;;;5015178;28;20451;-72
2023/07/23 10:34:42;;;;;;;1.93;1.83;;;22.10;1.00;;;;;;4996716;28;20481;-74
2023/07/23 10:37:12;;;;;;;2.57;0.33;;;22.10;1.00;;;;;;4992305;28;20983;-72
2023/07/23 10:39:44;;;;;;;0.90;0.30;;;22.30;1.00;;;;;;4992309;28;20450;-73
2023/07/23 10:42:37;;;;;;;1.60;0.80;;;22.40;1.00;;;;;;4992012;28;20441;-71
2023/07/23 10:45:23;;;;;;;1.37;0.83;;;22.50;1.00;;;;;;4991877;28;20496;-74
2023/07/23 10:47:53;;;;;;;0.70;0.20;;;22.70;1.00;;;;;;4992212;28;20445;-74
2023/07/23 10:50:22;;;;;;;0.90;0.63;;;22.80;1.00;;;;;;4992242;28;20803;-72
2023/07/23 10:52:52;;;;;;;1.20;0.70;;;22.70;1.00;;;;;;5010257;28;20676;-74
2023/07/23 10:55:34;;;;;;;0.60;0.10;;;;;;;;;;5012368;28;20500;-72
2023/07/23 10:58:11;;;;;;;0.80;0.47;;;22.80;1.00;;;;;;5012498;28;20519;-72
2023/07/23 11:00:43;;;;;;;0.93;0.27;;;23.00;1.00;;;;;;5011969;28;20455;-71
2023/07/23 11:03:12;;;;;;;0.70;0.10;;;23.00;1.00;;;;;;5020168;28;20449;-73
2023/07/23 11:05:42;;;;;;;1.00;0.30;;;;;;;;;;5011834;28;20464;-73
2023/07/23 11:08:20;;;;;;;1.00;0.50;;;23.10;1.00;;;;;;5012009;28;20445;-75
2023/07/23 11:10:57;;;;;;;0.60;0.10;;;;;;;;;;5011580;28;20440;-73
2023/07/23 11:13:31;;;;;;;1.00;0.50;;;23.20;1.00;;;;;;5011987;28;20893;-70
2023/07/23 11:16:03;;;;;;;1.20;0.43;;;23.40;1.00;;;;;;5011868;28;20478;-71
2023/07/23 11:18:35;;;;;;;0.90;0.63;;;23.40;1.00;;;;;;5012182;28;20449;-72
2023/07/23 11:21:05;;;;;;;0.70;0.20;;;23.40;1.00;;;;;;5012715;28;20456;-74
2023/07/23 11:23:38;;;;;;;1.10;1.00;;;23.50;1.00;;;;;;5013811;28;20451;-72
2023/07/23 11:26:09;;;;;;;2.50;0.87;;;23.60;1.00;;;;;;5018331;28;20469;-71
2023/07/23 11:28:37;;;;;;;1.20;0.80;;;23.70;1.00;;;;;;5021089;28;20493;-72
2023/07/23 11:31:05;;;;;;;1.43;0.67;;;23.80;1.00;;;;;;5017096;28;20828;-73
2023/07/23 11:33:34;;;;;;;0.90;0.47;;;23.80;1.00;;;;;;5008269;28;20488;-73
2023/07/23 11:36:03;;;;;;;0.93;0.47;;;23.90;1.00;;;;;;4996546;28;20542;-72
2023/07/23 11:38:34;;;;;;;0.80;0.37;;;24.00;1.00;;;;;;4997767;28;20445;-72
2023/07/23 11:41:02;;;;;;;0.90;0.63;;;;;;;;;;5000105;28;20960;-72
2023/07/23 11:43:34;;;;;;;0.70;0.20;;;24.10;1.00;;;;;;5013521;28;20461;-73
2023/07/23 11:46:02;;;;;;;0.80;0.43;;;24.30;1.00;;;;;;5026629;28;20463;-71
2023/07/23 11:48:33;;;;;;;0.90;0.57;;;24.40;1.00;;;;;;5018771;28;20447;-72
2023/07/23 11:51:02;;;;;;;1.47;0.80;;;24.50;1.00;;;;;;5024692;28;20529;-74
2023/07/23 11:53:32;;;;;;;0.70;0.20;;;24.50;1.00;;;;;;5028325;28;20480;-74
2023/07/23 11:56:09;;;;;;;0.70;0.20;;;;;;;;;;5027356;28;20466;-72
2023/07/23 11:58:39;;;;;;;0.80;0.20;;;24.50;1.00;;;;;;5023433;28;20441;-74
2023/07/23 12:01:09;;;;;;;2.10;0.73;;;24.50;1.00;;;;;;5017994;28;20460;-72
2023/07/23 12:03:40;;;;;;;0.70;0.10;;;;;;;;;;5018449;28;20473;-72
2023/07/23 12:06:08;;;;;;;0.80;0.30;;;24.50;1.00;;;;;;5014901;28;20470;-72
2023/07/23 12:08:38;;;;;;;0.70;0.10;;;24.50;1.00;;;;;;5014357;28;20485;-73
2023/07/23 12:11:18;;;;;;;1.30;0.47;;;24.50;1.00;;;;;;5004348;28;20868;-74
2023/07/23 12:13:52;;;;;;;1.10;0.73;;;24.50;1.00;;;;;;5018463;28;20519;-73
2023/07/23 12:16:34;;;;;;;0.83;0.50;;;;;;;;;;5014685;28;20536;-74
2023/07/23 12:19:06;;;;;;;0.70;0.20;;;24.60;1.00;;;;;;5018078;28;20442;-74
2023/07/23 12:21:36;;;;;;;1.07;0.30;;;24.80;1.00;;;;;;4993993;28;20539;-72
2023/07/23 12:24:18;;;;;;;4.80;1.10;;;24.80;1.00;;;;;;4995087;28;20483;-73
2023/07/23 12:26:49;;;;;;;3.63;1.23;;;24.90;1.00;;;;;;4994048;28;20557;-74
2023/07/23 12:29:18;;;;;;;1.27;0.30;;;24.90;1.00;;;;;;4996888;28;20454;-72
2023/07/23 12:31:47;;;;;;;1.27;0.63;;;25.00;1.00;;;;;;5014814;28;20440;-74
2023/07/23 12:34:16;;;;;;;0.97;0.50;;;25.10;1.00;;;;;;5015245;28;20529;-73
2023/07/23 12:36:44;;;;;;;0.70;0.10;;;25.10;1.00;;;;;;5016273;28;20499;-73
2023/07/23 12:39:12;;;;;;;2.60;0.80;;;25.10;1.00;;;;;;5015019;28;20928;-73
2023/07/23 12:41:40;;;;;;;1.33;0.87;;;25.10;1.00;;;;;;4996999;28;21011;-74
2023/07/23 12:44:09;;;;;;;3.17;0.83;;;25.00;1.00;;;;;;4997543;28;20473;-73
2023/07/23 12:46:37;;;;;;;0.80;0.30;;;24.80;1.00;;;;;;4997215;28;20456;-73
2023/07/23 12:49:05;;;;;;;0.80;0.40;;;24.80;1.00;;;;;;4996178;28;20991;-73
2023/07/23 12:51:33;;;;;;;0.70;0.37;;;24.80;1.00;;;;;;5013626;28;20481;-74
2023/07/23 12:54:01;;;;;;;0.80;0.40;;;24.80;1.00;;;;;;5014473;28;20870;-74
2023/07/23 12:56:29;;;;;;;0.70;0.10;;;24.80;1.00;;;;;;5014709;28;20999;-76
2023/07/23 12:58:57;;;;;;;0.70;0.20;;;24.90;1.00;;;;;;5013997;28;20565;-74
2023/07/23 13:01:30;;;;;;;0.80;0.40;;;24.90;1.00;;;;;;5005566;28;20457;-74
2023/07/23 13:03:59;;;;;;;2.20;0.97;;;;;;;;;;4994967;28;20447;-73
2023/07/23 13:06:27;;;;;;;1.63;0.43;;;24.80;1.00;;;;;;5033420;28;20485;-73
2023/07/23 13:08:55;;;;;;;1.83;0.57;;;25.00;1.00;;;;;;5030695;28;20443;-73
2023/07/23 13:11:23;;;;;;;1.63;0.47;;;25.00;1.00;;;;;;5023100;28;20530;-74
2023/07/23 13:13:53;;;;;;;0.70;0.20;;;25.10;1.00;;;;;;5029819;28;20579;-73
2023/07/23 13:16:21;;;;;;;0.70;0.20;;;25.10;1.00;;;;;;5033632;28;20465;-74
2023/07/23 13:18:51;;;;;;;1.97;0.40;;;25.10;1.00;;;;;;5033027;28;20532;-74
2023/07/23 13:21:19;;;;;;;0.70;0.20;;;;;;;;;;4999565;28;20963;-74
2023/07/23 13:23:47;;;;;;;0.70;0.10;;;25.10;1.00;;;;;;4993518;28;20445;-73
2023/07/23 13:26:15;;;;;;;0.70;0.30;;;25.10;1.00;;;;;;4994131;28;20841;-73
2023/07/23 13:28:43;;;;;;;1.23;0.93;;;;;;;;;;4994433;28;20451;-73
2023/07/23 13:31:11;;;;;;;0.80;0.40;;;25.10;1.00;;;;;;4994257;28;20483;-74
2023/07/23 13:33:39;;;;;;;1.00;0.33;;;;;;;;;;4994959;28;20483;-73
2023/07/23 13:36:09;;;;;;;0.70;0.13;;;25.40;1.00;;;;;;4994420;28;20474;-73
2023/07/23 13:38:36;;;;;;;0.90;0.60;;;25.40;1.00;;;;;;4994199;28;20821;-75
2023/07/23 13:41:05;;;;;;;2.00;0.73;;;25.40;1.00;;;;;;4994488;28;20449;-74
2023/07/23 13:43:33;;;;;;;1.83;0.70;;;25.60;1.00;;;;;;4995848;28;20487;-73
2023/07/23 13:46:00;;;;;;;0.90;0.33;;;25.70;1.00;;;;;;4994469;28;20977;-73
2023/07/23 13:48:28;;;;;;;0.70;0.23;;;25.70;1.00;;;;;;4994083;28;20448;-73
2023/07/23 13:50:56;;;;;;;0.80;0.40;;;25.60;1.00;;;;;;4994480;28;20480;-74
2023/07/23 13:53:25;;;;;;;1.20;0.53;;;25.50;1.00;;;;;;4993961;28;20544;-73
2023/07/23 13:55:53;;;;;;;1.00;0.57;;;25.60;1.00;;;;;;5020339;28;21021;-75
2023/07/23 13:58:21;;;;;;;1.00;0.40;;;25.70;1.00;;;;;;5022081;28;20822;-75
2023/07/23 14:00:49;;;;;;;0.70;0.20;;;25.70;1.00;;;;;;5023259;28;20535;-75
2023/07/23 14:03:16;;;;;;;1.13;0.33;;;25.80;1.00;;;;;;5024499;28;21009;-74
2023/07/23 14:05:44;;;;;;;4.73;3.23;;;25.80;1.00;;;;;;5024099;28;20494;-75
2023/07/23 14:08:12;;;;;;;0.70;0.10;;;;;;;;;;5012259;28;20444;-73
2023/07/23 14:10:42;;;;;;;2.03;0.30;;;25.90;1.00;;;;;;5007455;28;20535;-73
2023/07/23 14:13:09;;;;;;;1.77;0.90;;;26.00;1.00;;;;;;5012740;28;20944;-73
2023/07/23 14:15:37;;;;;;;2.23;1.17;;;26.10;1.00;;;;;;5012137;28;20488;-74
2023/07/23 14:18:06;;;;;;;1.57;0.63;;;26.10;1.00;;;;;;5017481;28;20446;-77
2023/07/23 14:20:34;;;;;;;0.70;0.20;;;26.10;1.00;;;;;;5004811;28;20477;-73
2023/07/23 14:23:02;;;;;;;1.90;0.40;;;26.10;1.00;;;;;;5017586;28;20470;-75
2023/07/23 14:25:30;;;;;;;2.37;0.83;;;26.00;1.00;;;;;;5035860;28;20498;-76
2023/07/23 14:27:59;;;;;;;0.70;0.10;;;26.00;1.00;;;;;;5037146;28;20479;-74
2023/07/23 14:30:27;;;;;;;2.10;0.90;;;26.00;1.00;;;;;;5028657;28;20452;-74
2023/07/23 14:32:55;;;;;;;0.70;0.20;;;25.90;1.00;;;;;;5014145;28;20451;-74
2023/07/23 14:35:24;;;;;;;0.70;0.10;;;;;;;;;;5013724;28;20546;-75
2023/07/23 14:37:51;;;;;;;0.80;0.53;;;26.00;1.00;;;;;;5013286;28;20482;-73
2023/07/23 14:40:19;;;;;;;0.70;0.20;;;25.90;1.00;;;;;;5021399;28;20456;-74
2023/07/23 14:42:47;;;;;;;1.50;0.60;;;25.90;1.00;;;;;;5021665;28;20904;-74
2023/07/23 14:45:16;;;;;;;1.43;1.33;;;25.90;1.00;;;;;;5005251;28;20520;-74
2023/07/23 14:47:44;;;;;;;1.40;0.63;;;25.90;1.00;;;;;;5018713;28;20499;-73
2023/07/23 14:50:12;;;;;;;1.80;1.70;;;25.90;1.00;;;;;;5020170;28;20443;-73
2023/07/23 14:52:40;;;;;;;0.80;0.33;;;26.00;1.00;;;;;;5021490;28;20440;-73
2023/07/23 14:55:09;;;;;;;1.10;0.63;;;26.00;1.00;;;;;;5021610;28;20480;-72
2023/07/23 14:57:36;;;;;;;0.70;0.20;;;26.00;1.00;;;;;;5025643;28;20439;-73
2023/07/23 15:00:05;;;;;;;1.33;1.07;;;26.00;1.00;;;;;;5028908;28;20447;-74
2023/07/23 15:02:35;;;;;;;1.40;0.57;;;26.10;1.00;;;;;;4995308;28;20455;-74
2023/07/23 15:05:03;;;;;;;0.70;0.20;;;26.20;1.00;;;;;;4993655;28;20455;-75
2023/07/23 15:07:31;;;;;;;1.00;0.20;;;26.20;1.00;;;;;;5000401;28;20452;-74
2023/07/23 15:09:59;;;;;;;1.57;0.70;;;26.20;1.00;;;;;;4995305;28;20488;-74
2023/07/23 15:12:28;;;;;;;2.33;0.90;;;26.00;1.00;;;;;;5011389;28;20439;-74
2023/07/23 15:14:56;;;;;;;0.90;0.40;;;;;;;;;;5011160;28;20522;-74
2023/07/23 15:17:24;;;;;;;0.97;0.37;;;;;;;;;;5011046;28;20510;-75
2023/07/23 15:19:54;;;;;;;1.23;0.43;;;25.90;1.00;;;;;;4998030;28;20456;-73
2023/07/23 15:22:24;;;;;;;0.70;0.20;;;25.80;1.00;;;;;;4990999;28;20480;-77
2023/07/23 15:24:52;;;;;;;1.07;0.70;;;25.60;1.00;;;;;;5006331;28;20551;-75
2023/07/23 15:27:22;;;;;;;0.70;0.20;;;25.70;1.00;;;;;;5020536;28;20460;-76
2023/07/23 15:29:55;;;;;;;1.57;0.67;;;25.60;1.00;;;;;;5015512;28;20452;-76
2023/07/23 15:32:23;;;;;;;0.70;0.10;;;;;;;;;;5012451;28;20618;-76
2023/07/23 15:34:51;;;;;;;0.93;0.53;;;25.70;1.00;;;;;;5013021;28;21010;-77
2023/07/23 15:37:21;;;;;;;3.27;1.03;;;25.70;1.00;;;;;;5015769;28;20535;-76
2023/07/23 15:39:49;;;;;;;0.90;0.40;;;25.60;1.00;;;;;;5007701;28;20511;-76
2023/07/23 15:42:17;;;;;;;1.10;0.30;;;25.60;1.00;;;;;;4997585;28;20448;-74
2023/07/23 15:44:44;;;;;;;0.80;0.30;;;25.50;1.00;;;;;;4993702;28;20444;-76
2023/07/23 15:47:12;;;;;;;0.70;0.20;;;25.50;1.00;;;;;;4993285;28;20480;-76
2023/07/23 15:49:40;;;;;;;0.70;0.20;;;25.50;1.00;;;;;;4993911;28;20540;-77
2023/07/23 15:52:08;;;;;;;1.20;0.70;;;25.60;1.00;;;;;;4994432;28;20880;-76
2023/07/23 15:54:37;;;;;;;1.30;0.73;;;25.60;1.00;;;;;;5001907;28;20456;-74
2023/07/23 15:57:07;;;;;;;1.17;0.83;;;25.40;1.00;;;;;;5023395;28;20501;-75
2023/07/23 15:59:35;;;;;;;0.70;0.20;;;25.50;1.00;;;;;;5021155;28;20483;-76
2023/07/23 16:02:03;;;;;;;0.70;0.20;;;25.60;1.00;;;;;;5018832;28;20454;-75
2023/07/23 16:04:31;;;;;;;0.70;0.30;;;25.50;1.00;;;;;;5021270;28;20438;-76
2023/07/23 16:06:59;;;;;;;1.20;0.30;;;25.50;1.00;;;;;;5027004;28;20471;-76
2023/07/23 16:09:29;;;;;;;0.80;0.40;;;25.50;1.00;;;;;;5018953;28;20439;-75
2023/07/23 16:11:58;;;;;;;0.80;0.50;;;25.50;1.00;;;;;;5023119;28;20447;-77
2023/07/23 16:14:26;;;;;;;0.70;0.10;;;25.50;1.00;;;;;;5019558;28;20442;-74
2023/07/23 16:16:53;;;;;;;0.80;0.30;;;25.50;1.00;;;;;;5000795;28;20575;-75
2023/07/23 16:19:21;;;;;;;0.70;0.10;;;25.50;1.00;;;;;;4995726;28;20507;-75
2023/07/23 16:21:49;;;;;;;1.23;1.03;;;25.50;1.00;;;;;;4996540;28;20455;-75
2023/07/23 16:24:17;;;;;;;0.90;0.30;;;25.50;1.00;;;;;;5008291;28;20442;-75
2023/07/23 16:26:45;;;;;;;1.60;0.70;;;25.50;1.00;;;;;;4996120;28;20519;-74
2023/07/23 16:29:15;;;;;;;0.70;0.10;;;;;;;;;;4997555;28;20441;-75
2023/07/23 16:31:43;;;;;;;0.70;0.27;;;25.50;1.00;;;;;;4996644;28;20453;-75
2023/07/23 16:34:12;;;;;;;0.90;0.37;;;25.50;1.00;;;;;;5013165;28;20824;-75
2023/07/23 16:36:43;;;;;;;0.70;0.20;;;25.30;1.00;;;;;;5026299;28;20869;-76
2023/07/23 16:39:14;;;;;;;0.70;0.10;;;25.30;1.00;;;;;;5024349;28;20519;-77
2023/07/23 16:41:43;;;;;;;0.70;0.10;;;25.30;1.00;;;;;;5019879;28;20929;-76
2023/07/23 16:44:14;;;;;;;0.70;0.20;;;25.40;1.00;;;;;;5018708;28;20485;-76
2023/07/23 16:46:42;;;;;;;0.70;0.10;;;25.40;1.00;;;;;;5019504;28;20497;-75
2023/07/23 16:49:10;;;;;;;0.70;0.10;;;25.40;1.00;;;;;;5001237;28;20452;-75
2023/07/23 16:51:38;;;;;;;0.70;0.10;;;;;;;;;;5035196;28;20987;-75
2023/07/23 16:54:07;;;;;;;0.70;0.10;;;;;;;;;;5034214;28;20538;-76
2023/07/23 16:56:35;;;;;;;0.70;0.10;;;25.40;1.00;;;;;;5015998;28;20481;-75
2023/07/23 16:59:03;;;;;;;0.70;0.10;;;25.30;1.00;;;;;;4996271;28;20483;-75
2023/07/23 17:01:32;;;;;;;0.70;0.10;;;25.30;1.00;;;;;;5024041;28;20451;-75
2023/07/23 17:04:00;;;;;;;0.70;0.10;;;25.20;1.00;;;;;;5005576;28;20447;-75
2023/07/23 17:06:28;;;;;;;0.70;0.20;;;25.10;1.00;;;;;;5011018;28;20841;-75
2023/07/23 17:08:57;;;;;;;0.70;0.10;;;25.00;1.00;;;;;;5001552;28;20579;-73
2023/07/23 17:11:25;;;;;;;6.77;6.30;;;24.90;1.00;;;;;;4996741;28;20499;-77
2023/07/23 17:13:53;;;;;;;0.70;0.20;;;24.90;1.00;;;;;;5012429;28;20455;-74
2023/07/23 17:16:21;;;;;;;0.70;0.10;;;24.80;1.00;;;;;;5014080;28;20578;-76
2023/07/23 17:18:50;;;;;;;0.70;0.10;;;24.80;1.00;;;;;;5013785;28;20447;-75
2023/07/23 17:21:18;;;;;;;2.50;1.03;;;24.80;1.00;;;;;;5004595;28;20491;-76